createdAt,value
2018-09-03T00:02:27.481Z,2.08
2018-09-03T00:04:54.497Z,1.60
2018-09-03T00:07:21.530Z,2.90
2018-09-03T00:09:48.547Z,2.90
2018-09-03T00:12:15.580Z,2.75
2018-09-03T00:14:42.597Z,2.62
2018-09-03T00:17:09.987Z,2.92
2018-09-03T00:19:37.225Z,2.10
2018-09-03T00:22:04.391Z,2.80
2018-09-03T00:24:31.419Z,1.70
2018-09-03T00:26:58.960Z,2.08
2018-09-03T00:29:26.375Z,2.30
2018-09-03T00:33:02.757Z,2.92
2018-09-03T00:35:35.289Z,3.10
2018-09-03T00:38:07.719Z,2.05
2018-09-03T00:40:40.338Z,2.30
2018-09-03T00:43:12.894Z,2.08
2018-09-03T00:45:45.374Z,3.20
2018-09-03T00:48:12.407Z,1.85
2018-09-03T00:50:39.441Z,3.10
2018-09-03T00:53:06.512Z,2.22
2018-09-03T00:55:33.536Z,3.33
2018-09-03T00:58:00.597Z,2.37
2018-09-03T01:00:27.628Z,2.72
2018-09-03T01:02:54.682Z,2.35
2018-09-03T01:05:21.708Z,2.47
2018-09-03T01:07:48.733Z,3.08
2018-09-03T01:10:15.764Z,2.00
2018-09-03T01:12:42.869Z,2.37
2018-09-03T01:15:09.896Z,2.65
2018-09-03T01:17:36.905Z,1.27
2018-09-03T01:20:03.902Z,2.00
2018-09-03T01:22:30.980Z,2.58
2018-09-03T01:24:58.426Z,1.72
2018-09-03T01:27:25.435Z,2.65
2018-09-03T01:29:52.467Z,2.60
2018-09-03T01:32:19.547Z,2.80
2018-09-03T01:34:46.576Z,2.65
2018-09-03T01:37:13.586Z,3.27
2018-09-03T01:39:40.606Z,2.08
2018-09-03T01:42:07.668Z,2.85
2018-09-03T01:44:34.679Z,1.90
2018-09-03T01:47:01.678Z,2.05
2018-09-03T01:49:28.696Z,2.22
2018-09-03T01:51:55.728Z,2.20
2018-09-03T01:54:22.801Z,1.80
2018-09-03T01:56:49.806Z,1.95
2018-09-03T01:59:16.832Z,1.92
2018-09-03T02:01:43.901Z,2.17
2018-09-03T02:04:10.911Z,2.47
2018-09-03T02:06:37.915Z,1.87
2018-09-03T02:09:07.522Z,2.35
2018-09-03T02:11:34.639Z,2.27
2018-09-03T02:14:01.655Z,2.87
2018-09-03T02:16:28.658Z,1.92
2018-09-03T02:18:55.692Z,2.92
2018-09-03T02:21:22.699Z,2.65
2018-09-03T02:23:49.713Z,2.05
2018-09-03T02:26:16.738Z,1.85
2018-09-03T02:28:43.760Z,2.00
2018-09-03T02:31:10.769Z,8.60
2018-09-03T02:33:37.871Z,2.55
2018-09-03T02:36:04.949Z,1.98
2018-09-03T02:38:31.965Z,2.75
2018-09-03T02:40:59.051Z,2.15
2018-09-03T02:43:26.137Z,2.17
2018-09-03T02:45:53.149Z,1.70
2018-09-03T02:48:20.198Z,2.22
2018-09-03T02:50:47.206Z,2.47
2018-09-03T02:53:14.328Z,2.05
2018-09-03T02:55:41.330Z,2.70
2018-09-03T02:58:08.346Z,1.98
2018-09-03T03:00:35.358Z,2.77
2018-09-03T03:03:02.422Z,1.65
2018-09-03T03:05:29.679Z,1.80
2018-09-03T03:07:57.002Z,2.12
2018-09-03T03:10:24.131Z,2.62
2018-09-03T03:12:51.211Z,1.82
2018-09-03T03:15:18.236Z,2.27
2018-09-03T03:17:45.291Z,2.17
2018-09-03T03:20:12.330Z,3.35
2018-09-03T03:22:39.392Z,2.02
2018-09-03T03:25:06.424Z,2.12
2018-09-03T03:27:33.487Z,2.35
2018-09-03T03:30:00.559Z,2.12
2018-09-03T03:32:27.677Z,2.20
2018-09-03T03:34:54.716Z,2.15
2018-09-03T03:37:21.725Z,2.20
2018-09-03T03:39:48.734Z,2.65
2018-09-03T03:42:15.749Z,2.12
2018-09-03T03:44:42.798Z,2.52
2018-09-03T03:47:09.864Z,3.17
2018-09-03T03:49:36.891Z,2.55
2018-09-03T03:52:03.963Z,2.70
2018-09-03T03:54:30.962Z,1.77
2018-09-03T03:56:58.533Z,3.40
2018-09-03T03:59:25.554Z,1.65
2018-09-03T04:01:52.635Z,1.60
2018-09-03T04:04:19.644Z,1.90
2018-09-03T04:06:46.652Z,1.87
2018-09-03T04:09:13.694Z,2.30
2018-09-03T04:11:41.227Z,2.20
2018-09-03T04:14:08.257Z,2.08
2018-09-03T04:16:35.290Z,1.50
2018-09-03T04:19:02.302Z,3.25
2018-09-03T04:21:29.428Z,1.92
2018-09-03T04:23:56.554Z,1.72
2018-09-03T04:26:23.588Z,2.70
2018-09-03T04:28:50.695Z,1.87
2018-09-03T04:31:17.632Z,2.17
2018-09-03T04:33:44.749Z,1.82
2018-09-03T04:36:11.787Z,3.00
2018-09-03T04:38:38.820Z,2.95
2018-09-03T04:41:05.833Z,2.33
2018-09-03T04:43:32.939Z,1.77
2018-09-03T04:46:00.009Z,2.52
2018-09-03T04:48:27.010Z,1.80
2018-09-03T04:50:54.172Z,2.30
2018-09-03T04:53:21.280Z,1.77
2018-09-03T04:55:48.285Z,3.30
2018-09-03T04:58:15.298Z,2.92
2018-09-03T05:00:42.328Z,2.58
2018-09-03T05:03:09.418Z,2.37
2018-09-03T05:05:36.440Z,2.62
2018-09-03T05:08:03.454Z,1.82
2018-09-03T05:10:30.484Z,2.17
2018-09-03T05:12:58.214Z,1.65
2018-09-03T05:15:25.229Z,2.67
2018-09-03T05:17:52.242Z,2.40
2018-09-03T05:20:19.244Z,1.75
2018-09-03T05:22:46.309Z,2.10
2018-09-03T05:25:13.327Z,2.60
2018-09-03T05:27:40.335Z,2.20
2018-09-03T05:30:07.655Z,2.80
2018-09-03T05:32:34.694Z,2.27
2018-09-03T05:35:01.724Z,2.12
2018-09-03T05:37:28.752Z,3.80
2018-09-03T05:39:55.766Z,2.60
2018-09-03T05:42:22.879Z,2.60
2018-09-03T05:44:49.956Z,2.58
2018-09-03T05:47:16.976Z,2.45
2018-09-03T05:49:44.049Z,1.52
2018-09-03T05:52:11.354Z,2.08
2018-09-03T05:54:38.889Z,1.92
2018-09-03T05:57:05.912Z,1.15
2018-09-03T05:59:32.960Z,1.20
2018-09-03T06:02:00.060Z,1.75
2018-09-03T06:04:27.089Z,1.95
2018-09-03T06:06:54.228Z,2.20
2018-09-03T06:09:21.245Z,1.87
2018-09-03T06:11:48.377Z,2.20
2018-09-03T06:14:15.466Z,3.67
2018-09-03T06:16:42.487Z,1.87
2018-09-03T06:19:09.500Z,2.45
2018-09-03T06:21:36.637Z,1.95
2018-09-03T06:24:03.715Z,3.27
2018-09-03T06:26:30.810Z,2.52
2018-09-03T06:28:58.137Z,1.42
2018-09-03T06:31:25.160Z,2.10
2018-09-03T06:33:52.206Z,1.20
2018-09-03T06:36:19.209Z,2.30
2018-09-03T06:38:46.234Z,2.02
2018-09-03T06:41:14.180Z,2.45
2018-09-03T06:43:41.273Z,2.12
2018-09-03T06:46:08.308Z,2.08
2018-09-03T06:48:35.335Z,2.50
2018-09-03T06:51:02.403Z,2.10
2018-09-03T06:53:29.467Z,2.33
2018-09-03T06:55:56.484Z,1.50
2018-09-03T06:58:23.504Z,2.17
2018-09-03T07:00:50.546Z,3.35
2018-09-03T07:03:17.619Z,2.00
2018-09-03T07:05:44.646Z,1.87
2018-09-03T07:08:11.674Z,2.20
2018-09-03T07:10:38.681Z,1.80
2018-09-03T07:13:06.842Z,1.42
2018-09-03T07:15:33.982Z,2.30
2018-09-03T07:18:01.315Z,2.55
2018-09-03T07:20:28.343Z,2.33
2018-09-03T07:22:55.453Z,1.98
2018-09-03T07:25:22.470Z,1.57
2018-09-03T07:27:49.506Z,1.40
2018-09-03T07:30:16.530Z,1.47
2018-09-03T07:32:43.606Z,1.82
2018-09-03T07:35:10.656Z,1.50
2018-09-03T07:37:37.668Z,3.77
2018-09-03T07:40:05.095Z,1.82
2018-09-03T07:42:32.132Z,1.90
2018-09-03T07:44:59.256Z,1.57
2018-09-03T07:47:26.323Z,1.82
2018-09-03T07:49:54.069Z,2.45
2018-09-03T07:52:21.132Z,3.12
2018-09-03T07:54:48.365Z,2.92
2018-09-03T07:57:15.489Z,1.87
2018-09-03T07:59:42.586Z,2.75
2018-09-03T08:02:09.968Z,2.35
2018-09-03T08:04:36.984Z,2.27
2018-09-03T08:07:04.044Z,2.75
2018-09-03T08:09:31.276Z,2.75
2018-09-03T08:11:58.485Z,2.22
2018-09-03T08:14:25.493Z,1.95
2018-09-03T08:16:52.607Z,2.12
2018-09-03T08:19:19.640Z,1.55
2018-09-03T08:21:46.733Z,2.15
2018-09-03T08:24:13.767Z,1.67
2018-09-03T08:26:40.857Z,1.50
2018-09-03T08:29:07.881Z,1.80
2018-09-03T08:31:35.085Z,1.87
2018-09-03T08:34:02.169Z,2.42
2018-09-03T08:36:29.509Z,1.65
2018-09-03T08:38:56.552Z,2.42
2018-09-03T08:41:23.573Z,2.00
2018-09-03T08:43:50.610Z,1.82
2018-09-03T08:46:18.140Z,2.47
2018-09-03T08:48:45.269Z,1.90
2018-09-03T08:51:12.274Z,1.92
2018-09-03T08:53:39.321Z,1.75
2018-09-03T08:56:06.447Z,2.52
2018-09-03T08:58:33.454Z,1.37
2018-09-03T09:01:00.461Z,2.75
2018-09-03T09:03:32.921Z,2.15
2018-09-03T09:06:00.021Z,2.08
2018-09-03T09:08:27.035Z,1.82
2018-09-03T09:10:54.052Z,2.12
2018-09-03T09:13:21.241Z,1.57
2018-09-03T09:15:48.787Z,2.35
2018-09-03T09:18:16.217Z,1.90
2018-09-03T09:20:43.275Z,1.80
2018-09-03T09:23:10.323Z,2.02
2018-09-03T09:25:37.428Z,2.20
2018-09-03T09:28:04.663Z,3.58
2018-09-03T09:30:31.682Z,1.85
2018-09-03T09:32:59.358Z,1.85
2018-09-03T09:35:26.366Z,2.58
2018-09-03T09:37:53.392Z,2.00
2018-09-03T09:40:20.430Z,3.50
2018-09-03T09:42:47.498Z,2.98
2018-09-03T09:45:14.831Z,1.75
2018-09-03T09:47:41.905Z,2.25
2018-09-03T09:50:08.933Z,2.40
2018-09-03T09:52:37.028Z,2.15
2018-09-03T09:55:04.177Z,2.35
2018-09-03T09:57:31.226Z,2.40
2018-09-03T09:59:58.477Z,2.33
2018-09-03T10:02:25.548Z,1.92
2018-09-03T10:04:52.792Z,2.02
2018-09-03T10:07:19.942Z,1.72
2018-09-03T10:09:46.986Z,1.98
2018-09-03T10:12:18.693Z,1.95
2018-09-03T10:14:45.730Z,1.75
2018-09-03T10:17:12.813Z,1.62
2018-09-03T10:19:39.854Z,2.12
2018-09-03T10:22:06.904Z,1.62
2018-09-03T10:24:33.938Z,2.52
2018-09-03T10:27:00.962Z,2.52
2018-09-03T10:29:28.017Z,2.95
2018-09-03T10:31:55.173Z,3.05
2018-09-03T10:34:22.152Z,2.17
2018-09-03T10:36:49.170Z,2.30
2018-09-03T10:39:16.202Z,1.52
2018-09-03T10:41:43.299Z,2.05
2018-09-03T10:44:10.329Z,1.60
2018-09-03T10:46:37.386Z,1.65
2018-09-03T10:49:04.396Z,1.40
2018-09-03T10:51:31.484Z,2.52
2018-09-03T10:53:59.040Z,1.92
2018-09-03T10:56:26.062Z,2.42
2018-09-03T10:58:53.098Z,2.37
2018-09-03T11:01:20.146Z,2.67
2018-09-03T11:03:47.248Z,2.77
2018-09-03T11:06:15.401Z,2.47
2018-09-03T11:08:42.467Z,2.65
2018-09-03T11:11:09.543Z,2.30
2018-09-03T11:13:36.614Z,1.50
2018-09-03T11:16:04.205Z,2.37
2018-09-03T11:18:32.036Z,1.75
2018-09-03T11:21:00.315Z,1.70
2018-09-03T11:23:27.398Z,2.27
2018-09-03T11:25:54.435Z,3.15
2018-09-03T11:28:21.497Z,2.00
2018-09-03T11:30:49.347Z,2.15
2018-09-03T11:33:16.412Z,2.10
2018-09-03T11:35:43.466Z,2.70
2018-09-03T11:38:10.545Z,1.62
2018-09-03T11:40:37.600Z,1.90
2018-09-03T11:43:04.679Z,1.90
2018-09-03T11:45:31.714Z,2.45
2018-09-03T11:47:58.793Z,2.60
2018-09-03T11:50:25.890Z,2.62
2018-09-03T11:52:53.060Z,1.92
2018-09-03T11:55:20.214Z,1.95
2018-09-03T11:57:47.270Z,2.98
2018-09-03T12:00:19.295Z,2.40
2018-09-03T12:02:46.368Z,2.20
2018-09-03T12:05:13.412Z,1.70
2018-09-03T12:07:40.469Z,1.95
2018-09-03T12:10:08.011Z,2.42
2018-09-03T12:12:35.113Z,2.00
2018-09-03T12:15:06.393Z,1.90
2018-09-03T12:17:33.465Z,2.17
2018-09-03T12:20:00.501Z,2.70
2018-09-03T12:22:27.745Z,1.80
2018-09-03T12:24:54.772Z,1.55
2018-09-03T12:27:21.778Z,2.87
2018-09-03T12:29:48.869Z,3.15
2018-09-03T12:32:15.961Z,2.00
2018-09-03T12:34:43.004Z,2.87
2018-09-03T12:37:10.065Z,2.30
2018-09-03T12:39:37.180Z,1.95
2018-09-03T12:42:04.342Z,2.33
2018-09-03T12:44:31.392Z,3.30
2018-09-03T12:46:58.439Z,3.52
2018-09-03T12:49:25.941Z,5.50
2018-09-03T12:51:53.054Z,7.12
2018-09-03T12:54:20.152Z,7.08
2018-09-03T12:56:47.202Z,6.33
2018-09-03T12:59:14.236Z,8.68
2018-09-03T13:01:41.320Z,7.35
2018-09-03T13:04:08.360Z,5.35
2018-09-03T13:06:35.794Z,6.35
2018-09-03T13:09:02.906Z,6.47
2018-09-03T13:11:30.006Z,6.30
2018-09-03T13:13:57.042Z,5.92
2018-09-03T13:16:24.150Z,6.25
2018-09-03T13:18:51.322Z,5.72
2018-09-03T13:21:18.290Z,5.90
2018-09-03T13:23:45.660Z,5.58
2018-09-03T13:26:12.779Z,5.80
2018-09-03T13:28:39.821Z,6.45
2018-09-03T13:31:06.869Z,6.53
2018-09-03T13:33:34.078Z,7.53
2018-09-03T13:36:01.169Z,6.83
2018-09-03T13:38:28.199Z,7.67
2018-09-03T13:40:55.234Z,7.25
2018-09-03T13:43:22.381Z,6.22
2018-09-03T13:45:49.418Z,7.17
2018-09-03T13:48:16.526Z,5.20
2018-09-03T13:50:43.594Z,8.48
2018-09-03T13:53:10.780Z,6.10
2018-09-03T13:55:37.842Z,7.30
2018-09-03T13:58:04.984Z,7.17
2018-09-03T14:00:32.112Z,7.55
2018-09-03T14:02:59.257Z,5.60
2018-09-03T14:05:26.348Z,6.70
2018-09-03T14:07:53.443Z,7.40
2018-09-03T14:10:20.621Z,6.60
2018-09-03T14:12:48.790Z,6.83
2018-09-03T14:15:16.630Z,10.48
2018-09-03T14:17:43.694Z,9.83
2018-09-03T14:20:10.813Z,8.73
2018-09-03T14:22:41.026Z,8.53
2018-09-03T14:25:08.640Z,9.53
2018-09-03T14:27:35.934Z,8.85
2018-09-03T14:30:03.072Z,10.82
2018-09-03T14:32:30.224Z,10.48
2018-09-03T14:34:57.747Z,8.03
2018-09-03T14:37:24.766Z,8.60
2018-09-03T14:39:51.845Z,8.93
2018-09-03T14:42:18.994Z,8.38
2018-09-03T14:44:46.064Z,8.60
2018-09-03T14:47:13.500Z,7.53
2018-09-03T14:49:40.681Z,7.70
2018-09-03T14:52:07.732Z,9.30
2018-09-03T14:54:34.799Z,9.55
2018-09-03T14:57:01.883Z,10.15
2018-09-03T14:59:28.986Z,8.73
2018-09-03T15:01:56.114Z,8.83
2018-09-03T15:04:23.181Z,10.25
2018-09-03T15:06:50.274Z,10.53
2018-09-03T15:09:17.371Z,8.15
2018-09-03T15:11:44.452Z,8.25
2018-09-03T15:14:11.503Z,9.30
2018-09-03T15:16:38.617Z,8.18
2018-09-03T15:19:06.014Z,9.45
2018-09-03T15:21:33.887Z,8.03
2018-09-03T15:24:01.085Z,11.20
2018-09-03T15:26:29.142Z,11.53
2018-09-03T15:28:56.244Z,10.10
2018-09-03T15:31:23.303Z,10.38
2018-09-03T15:33:51.872Z,10.80
2018-09-03T15:36:19.083Z,11.35
2018-09-03T15:38:46.764Z,10.88
2018-09-03T15:41:13.845Z,8.28
2018-09-03T15:43:41.028Z,9.88
2018-09-03T15:46:08.935Z,9.20
2018-09-03T15:48:36.024Z,9.25
2018-09-03T15:51:03.531Z,11.50
2018-09-03T15:53:30.594Z,11.50
2018-09-03T15:55:59.209Z,8.20
2018-09-03T15:58:27.316Z,11.33
2018-09-03T16:00:54.393Z,9.28
2018-09-03T16:03:21.600Z,7.42
2018-09-03T16:05:48.797Z,8.85
2018-09-03T16:08:15.882Z,10.70
2018-09-03T16:10:43.023Z,8.60
2018-09-03T16:13:10.406Z,8.28
2018-09-03T16:15:37.850Z,6.80
2018-09-03T16:18:05.055Z,8.05
2018-09-03T16:20:32.139Z,7.55
2018-09-03T16:23:00.142Z,8.13
2018-09-03T16:25:27.490Z,8.00
2018-09-03T16:27:54.815Z,8.65
2018-09-03T16:30:21.947Z,7.28
2018-09-03T16:32:49.143Z,9.50
2018-09-03T16:35:16.180Z,10.15
2018-09-03T16:37:43.254Z,7.65
2018-09-03T16:40:11.345Z,10.13
2018-09-03T16:42:38.589Z,9.78
2018-09-03T16:45:06.050Z,7.55
2018-09-03T16:47:33.276Z,9.48
2018-09-03T16:50:00.908Z,9.50
2018-09-03T16:52:31.992Z,9.15
2018-09-03T16:55:00.135Z,10.18
2018-09-03T16:57:27.211Z,9.80
2018-09-03T16:59:54.554Z,11.40
2018-09-03T17:02:21.849Z,9.73
2018-09-03T17:04:49.386Z,10.15
2018-09-03T17:07:16.633Z,9.53
2018-09-03T17:09:44.023Z,8.98
2018-09-03T17:12:11.202Z,9.53
2018-09-03T17:14:38.283Z,9.83
2018-09-03T17:17:05.617Z,10.98
2018-09-03T17:19:32.715Z,8.45
2018-09-03T17:21:59.916Z,5.72
2018-09-03T17:24:27.064Z,9.08
2018-09-03T17:26:54.162Z,6.08
2018-09-03T17:29:21.271Z,7.50
2018-09-03T17:31:48.366Z,7.72
2018-09-03T17:34:15.456Z,6.58
2018-09-03T17:36:42.590Z,7.78
2018-09-03T17:39:10.192Z,7.20
2018-09-03T17:41:37.417Z,7.50
2018-09-03T17:44:04.484Z,7.37
2018-09-03T17:46:31.689Z,6.72
2018-09-03T17:48:58.788Z,6.97
2018-09-03T17:51:27.261Z,6.83
2018-09-03T17:53:54.380Z,4.70
2018-09-03T17:56:21.448Z,6.50
2018-09-03T17:58:48.617Z,6.58
2018-09-03T18:01:16.841Z,6.87
2018-09-03T18:03:43.962Z,5.80
2018-09-03T18:06:11.034Z,7.37
2018-09-03T18:08:38.153Z,5.90
2018-09-03T18:11:05.243Z,6.53
2018-09-03T18:13:32.485Z,6.83
2018-09-03T18:15:59.781Z,5.42
2018-09-03T18:18:27.121Z,5.28
2018-09-03T18:20:54.498Z,8.10
2018-09-03T18:23:21.695Z,5.17
2018-09-03T18:25:48.875Z,5.45
2018-09-03T18:28:15.927Z,5.42
2018-09-03T18:30:43.044Z,4.55
2018-09-03T18:33:10.524Z,4.87
2018-09-03T18:35:37.680Z,6.20
2018-09-03T18:38:05.744Z,6.67
2018-09-03T18:40:33.001Z,4.62
2018-09-03T18:43:00.217Z,4.10
2018-09-03T18:45:27.431Z,5.97
2018-09-03T18:47:54.597Z,5.85
2018-09-03T18:50:23.248Z,5.65
2018-09-03T18:52:50.691Z,5.42
2018-09-03T18:55:18.171Z,5.70
2018-09-03T18:57:45.454Z,7.30
2018-09-03T19:00:13.163Z,4.90
2018-09-03T19:02:40.249Z,5.47
2018-09-03T19:05:07.826Z,5.85
2018-09-03T19:07:34.932Z,6.17
2018-09-03T19:10:02.036Z,5.62
2018-09-03T19:12:29.246Z,5.20
2018-09-03T19:14:56.556Z,5.65
2018-09-03T19:17:23.857Z,5.05
2018-09-03T19:19:51.298Z,5.78
2018-09-03T19:22:18.466Z,4.40
2018-09-03T19:24:45.564Z,5.65
2018-09-03T19:27:12.833Z,6.03
2018-09-03T19:29:40.487Z,6.92
2018-09-03T19:32:07.757Z,4.92
2018-09-03T19:34:35.635Z,4.03
2018-09-03T19:37:05.888Z,6.15
2018-09-03T19:39:33.386Z,4.53
2018-09-03T19:42:19.227Z,7.03
2018-09-03T19:45:43.153Z,4.55
2018-09-03T19:48:11.788Z,5.62
2018-09-03T19:50:38.922Z,5.92
2018-09-03T19:53:06.342Z,6.85
2018-09-03T19:55:33.366Z,6.10
2018-09-03T19:58:01.414Z,5.90
2018-09-03T20:00:29.366Z,7.42
2018-09-03T20:02:56.655Z,6.20
2018-09-03T20:05:25.471Z,4.85
2018-09-03T20:07:52.646Z,4.55
2018-09-03T20:10:19.793Z,6.65
2018-09-03T20:12:46.876Z,5.33
2018-09-03T20:15:18.264Z,4.80
2018-09-03T20:17:45.396Z,4.95
2018-09-03T20:20:13.030Z,6.90
2018-09-03T20:22:40.253Z,5.40
2018-09-03T20:25:07.303Z,6.15
2018-09-03T20:27:34.391Z,4.40
2018-09-03T20:30:02.008Z,5.37
2018-09-03T20:32:29.086Z,6.00
2018-09-03T20:34:56.136Z,6.00
2018-09-03T20:37:23.286Z,6.75
2018-09-03T20:39:50.399Z,6.12
2018-09-03T20:42:17.626Z,6.12
2018-09-03T20:44:44.841Z,5.20
2018-09-03T20:47:11.847Z,4.03
2018-09-03T20:49:39.295Z,5.72
2018-09-03T20:52:07.340Z,4.03
2018-09-03T20:54:39.670Z,6.70
2018-09-03T20:57:07.990Z,6.10
2018-09-03T20:59:38.234Z,5.50
2018-09-03T21:02:05.442Z,6.53
2018-09-03T21:04:35.922Z,5.70
2018-09-03T21:07:05.448Z,5.15
2018-09-03T21:09:33.289Z,5.50
2018-09-03T21:12:03.720Z,6.20
2018-09-03T21:14:35.472Z,4.40
2018-09-03T21:17:03.249Z,5.05
2018-09-03T21:19:30.329Z,4.33
2018-09-03T21:21:57.531Z,5.60
2018-09-03T21:24:24.614Z,4.20
2018-09-03T21:26:52.716Z,4.97
2018-09-03T21:29:22.600Z,3.47
2018-09-03T21:34:58.637Z,5.20
2018-09-03T21:37:26.117Z,5.05
2018-09-03T21:39:53.208Z,5.03
2018-09-03T21:42:21.361Z,4.60
2018-09-03T21:44:50.226Z,5.47
2018-09-03T21:47:17.360Z,5.35
2018-09-03T21:49:44.765Z,3.67
2018-09-03T21:52:11.894Z,5.53
2018-09-03T21:54:38.958Z,5.15
2018-09-03T21:57:06.030Z,5.28
2018-09-03T21:59:33.054Z,6.55
2018-09-03T22:02:00.168Z,5.15
2018-09-03T22:04:27.247Z,5.67
2018-09-03T22:06:54.338Z,6.22
2018-09-03T22:09:21.374Z,5.87
2018-09-03T22:11:56.478Z,4.97
2018-09-03T22:14:57.436Z,6.72
2018-09-03T22:17:41.399Z,4.80
2018-09-03T22:20:23.096Z,5.53
2018-09-03T22:22:50.538Z,5.47
2018-09-03T22:25:17.623Z,6.03
2018-09-03T22:27:44.721Z,4.65
2018-09-03T22:30:11.845Z,4.90
2018-09-03T22:32:38.929Z,6.62
2018-09-03T22:35:05.993Z,6.47
2018-09-03T22:37:33.044Z,6.72
2018-09-03T22:40:00.059Z,5.47
2018-09-03T22:42:27.498Z,4.30
2018-09-03T22:44:54.998Z,5.42
2018-09-03T22:47:22.069Z,5.05
2018-09-03T22:49:49.141Z,4.53
2018-09-03T22:52:16.254Z,4.85
2018-09-03T22:54:43.285Z,4.50
2018-09-03T22:57:10.425Z,5.25
2018-09-03T22:59:37.488Z,6.30
2018-09-03T23:02:04.631Z,4.58
2018-09-03T23:04:31.682Z,3.60
2018-09-03T23:06:59.546Z,4.72
2018-09-03T23:09:27.419Z,4.75
2018-09-03T23:11:54.567Z,5.97
2018-09-03T23:14:21.623Z,4.70
2018-09-03T23:16:48.716Z,5.58
2018-09-03T23:19:15.823Z,4.92
2018-09-03T23:21:42.973Z,4.05
2018-09-03T23:24:10.027Z,5.12
2018-09-03T23:26:37.055Z,5.03
2018-09-03T23:29:04.092Z,4.95
2018-09-03T23:31:31.149Z,4.70
2018-09-03T23:33:58.828Z,3.90
2018-09-03T23:36:25.961Z,5.25
2018-09-03T23:38:53.022Z,5.15
2018-09-03T23:41:20.055Z,5.45
2018-09-03T23:43:47.163Z,5.97
2018-09-03T23:46:14.230Z,3.75
2018-09-03T23:48:41.315Z,4.53
2018-09-03T23:51:08.379Z,4.42
2018-09-03T23:53:35.476Z,5.37
2018-09-03T23:56:02.575Z,5.08
2018-09-03T23:58:29.635Z,4.53
